Time;durP1;ratioP1;P1;durP2;ratioP2;P2;SDS_P1;SDS_P2;PMS_P1;PMS_P2;Temp;Humidity;BMP_temperature;BMP_pressure;BME280_temperature;BME280_humidity;BME280_pressure;Samples;Min_cycle;Max_cycle;Signal;HPM_P1;HPM_P2
2022/11/15 00:02:03;;;;;;;6.20;5.03;;;;;;;16.42;82.10;100516.34;20786507;28;20047;-88
2022/11/15 00:12:23;;;;;;;5.80;4.97;;;;;;;16.49;82.19;100544.38;20790053;28;20041;-87
2022/11/15 00:22:43;;;;;;;6.45;4.90;;;;;;;16.66;81.99;100570.59;20780331;28;20057;-87
2022/11/15 00:33:04;;;;;;;5.85;5.00;;;;;;;16.56;81.55;100517.78;20786199;28;20517;-87
2022/11/15 00:43:24;;;;;;;5.57;5.00;;;;;;;16.74;81.50;100532.28;20786192;28;20045;-87
2022/11/15 00:53:44;;;;;;;5.65;5.00;;;;;;;16.75;81.29;100531.28;20795769;28;20046;-88
2022/11/15 01:04:04;;;;;;;5.90;5.15;;;;;;;16.65;81.01;100507.06;20792934;28;20485;-88
2022/11/15 01:14:24;;;;;;;6.43;5.47;;;;;;;16.74;80.99;100523.34;20785199;28;20120;-88
2022/11/15 01:24:44;;;;;;;5.28;4.78;;;;;;;16.74;80.79;100518.84;20766006;28;20045;-87
2022/11/15 01:35:05;;;;;;;6.40;4.93;;;;;;;16.75;80.63;100503.53;20750475;28;20046;-88
2022/11/15 01:45:25;;;;;;;5.18;4.68;;;;;;;16.73;80.61;100473.25;20738417;28;20045;-88
2022/11/15 01:55:45;;;;;;;6.07;4.50;;;;;;;16.73;80.30;100462.50;20784347;28;20049;-87
2022/11/15 02:06:05;;;;;;;5.05;4.30;;;;;;;16.73;80.23;100459.81;20790427;28;20045;-87
2022/11/15 02:17:03;;;;;;;4.50;4.03;;;;;;;16.72;79.91;100459.00;20792639;28;20054;-87
2022/11/15 02:27:25;;;;;;;5.55;4.80;;;;;;;16.72;80.22;100442.00;20766106;28;20761;-88
2022/11/15 02:37:57;;;;;;;5.53;4.20;;;;;;;16.50;79.79;100404.50;20783827;28;20502;-87
2022/11/15 02:48:17;;;;;;;5.47;4.40;;;;;;;16.73;79.85;100443.69;20776163;28;20045;-88
2022/11/15 02:58:56;;;;;;;5.70;4.28;;;;;;;16.72;79.98;100436.63;20748575;28;20132;-87
2022/11/15 03:09:26;;;;;;;5.75;4.07;;;;;;;16.72;80.03;100428.56;20778693;28;20469;-87
2022/11/15 03:19:47;;;;;;;5.72;4.45;;;;;;;16.73;80.23;100438.31;20771727;28;20080;-87
2022/11/15 03:30:08;;;;;;;6.03;4.50;;;;;;;16.71;80.08;100435.78;20770999;28;20037;-88
2022/11/15 03:40:35;;;;;;;5.15;3.80;;;;;;;16.61;80.23;100408.06;20763167;28;20050;-88
2022/11/15 03:50:55;;;;;;;6.25;4.57;;;;;;;16.48;80.28;100362.63;20781606;28;20049;-88
2022/11/15 04:01:15;;;;;;;4.70;4.15;;;;;;;16.70;80.36;100399.16;20765308;28;20478;-88
2022/11/15 04:11:36;;;;;;;5.05;4.30;;;;;;;16.71;80.47;100397.28;20758909;28;20049;-87
2022/11/15 04:32:35;;;;;;;5.80;4.30;;;;;;;16.70;80.63;100400.97;20769812;28;20053;-87
2022/11/15 04:42:55;;;;;;;4.90;4.20;;;;;;;16.70;80.86;100390.22;20773304;28;20046;-87
2022/11/15 04:53:22;;;;;;;4.15;3.45;;;;;;;16.69;80.84;100397.44;20777539;28;20045;-88
2022/11/15 05:14:21;;;;;;;5.90;4.00;;;;;;;16.26;81.17;100326.97;20766725;28;20124;-87
2022/11/15 05:24:41;;;;;;;5.70;4.63;;;;;;;16.68;81.15;100388.53;20749464;28;20041;-87
2022/11/15 05:35:02;;;;;;;5.05;3.90;;;;;;;16.70;81.18;100384.84;20775565;28;20523;-88
2022/11/15 05:45:22;;;;;;;4.57;3.70;;;;;;;16.69;80.88;100392.06;20775206;28;20054;-90
2022/11/15 05:55:46;;;;;;;4.57;3.50;;;;;;;16.74;80.21;100386.25;20760481;28;20453;-91
2022/11/15 06:06:06;;;;;;;5.88;3.78;;;;;;;16.45;85.17;100319.94;20775806;28;20132;-88
2022/11/15 06:16:34;;;;;;;7.13;3.65;;;;;;;16.92;86.70;100395.31;20772105;28;20045;-91
2022/11/15 06:26:54;;;;;;;12.38;3.72;;;;;;;17.00;85.20;100401.88;20791459;28;20045;-95
2022/11/15 06:37:14;;;;;;;5.75;4.00;;;;;;;17.05;84.23;100408.53;20764265;28;20518;-88
2022/11/15 06:47:34;;;;;;;5.75;3.90;;;;;;;16.18;83.12;100279.34;20766196;28;20057;-87
2022/11/15 06:57:54;;;;;;;5.88;3.22;;;;;;;17.06;82.18;100428.19;20774776;28;20045;-87
2022/11/15 07:08:14;;;;;;;4.72;3.58;;;;;;;16.62;81.77;100364.91;20765890;28;20045;-87
2022/11/15 07:18:36;;;;;;;4.90;3.38;;;;;;;17.05;81.44;100442.63;20748960;28;20060;-86
2022/11/15 07:28:56;;;;;;;4.82;3.38;;;;;;;17.04;81.19;100455.22;20752495;28;20401;-88
2022/11/15 07:39:16;;;;;;;4.82;3.70;;;;;;;17.05;80.98;100464.13;20762368;28;20049;-87
2022/11/15 07:49:36;;;;;;;4.22;3.28;;;;;;;16.98;80.94;100447.69;20750693;28;20053;-87
2022/11/15 07:59:57;;;;;;;5.43;3.40;;;;;;;17.06;81.01;100460.44;20758712;28;20053;-89
2022/11/15 08:10:18;;;;;;;4.55;3.25;;;;;;;17.06;81.12;100455.06;20742016;28;20045;-88
2022/11/15 08:20:39;;;;;;;4.43;3.13;;;;;;;16.73;81.09;100401.56;20754440;28;20402;-89
2022/11/15 08:30:59;;;;;;;4.78;3.20;;;;;;;17.07;81.63;100440.63;20730179;28;20045;-93
2022/11/15 08:41:31;;;;;;;6.35;3.08;;;;;;;17.05;81.61;100445.31;20754381;28;20053;-86
2022/11/15 08:51:51;;;;;;;4.05;2.85;;;;;;;17.06;82.40;100444.31;20743378;28;20053;-85
2022/11/15 09:02:13;;;;;;;3.63;2.67;;;;;;;17.08;82.45;100436.94;20762846;28;20046;-85
2022/11/15 09:12:33;;;;;;;4.45;2.70;;;;;;;17.10;82.75;100414.31;20757937;28;20053;-88
2022/11/15 09:22:53;;;;;;;3.38;2.65;;;;;;;17.12;82.80;100400.72;20768199;28;20050;-87
2022/11/15 09:33:15;;;;;;;3.55;2.33;;;;;;;17.13;82.91;100396.19;20749175;28;21432;-88
2022/11/15 09:43:42;;;;;;;3.10;2.20;;;;;;;17.14;83.01;100414.03;20765773;28;20440;-88
2022/11/15 09:54:09;;;;;;;3.55;2.25;;;;;;;17.14;83.09;100403.28;20786022;28;20614;-87
2022/11/15 10:04:31;;;;;;;2.20;1.92;;;;;;;17.06;83.31;100374.41;20730766;28;20060;-88
2022/11/15 10:14:33;;;;;;;3.08;2.63;;;;;;;17.12;83.40;100389.94;20766137;28;20076;-85
2022/11/15 10:24:39;;;;;;;3.35;2.83;;;;;;;17.07;83.28;100371.56;20748408;28;20068;-86
2022/11/15 10:34:41;;;;;;;2.92;2.55;;;;;;;17.04;83.46;100350.34;20716245;28;20053;-86
2022/11/15 10:44:44;;;;;;;3.33;2.50;;;;;;;17.02;83.51;100351.47;20704549;28;20069;-88
2022/11/15 10:54:52;;;;;;;4.35;3.10;;;;;;;16.61;83.75;100282.59;20707816;28;20045;-88
2022/11/15 11:04:53;;;;;;;2.88;2.55;;;;;;;16.98;83.84;100333.94;20726837;28;20055;-88
2022/11/15 11:14:55;;;;;;;2.97;2.60;;;;;;;16.74;84.04;100302.94;20720228;28;20169;-88
2022/11/15 11:25:05;;;;;;;3.55;2.72;;;;;;;16.96;84.25;100328.66;20715210;28;20072;-88
2022/11/15 11:35:13;;;;;;;3.17;2.58;;;;;;;16.94;84.02;100318.06;20698098;28;20064;-87
2022/11/15 11:45:44;;;;;;;2.75;2.08;;;;;;;16.93;83.91;100321.75;20720422;28;20038;-88
2022/11/15 11:55:56;;;;;;;2.42;2.15;;;;;;;16.93;83.71;100320.88;20727544;28;20199;-87
2022/11/15 12:06:04;;;;;;;2.33;2.00;;;;;;;16.92;83.67;100330.81;20740706;28;20053;-89
2022/11/15 12:16:18;;;;;;;2.95;2.10;;;;;;;16.86;83.46;100304.50;20719913;28;20128;-89
2022/11/15 12:26:23;;;;;;;2.17;1.90;;;;;;;16.91;83.52;100290.59;20719382;28;20552;-88
2022/11/15 12:36:36;;;;;;;2.83;2.47;;;;;;;16.91;83.52;100290.59;20707865;28;20049;-86
2022/11/15 12:46:40;;;;;;;2.03;1.73;;;;;;;16.91;83.30;100286.09;20764453;28;20391;-87
2022/11/15 12:56:41;;;;;;;2.60;1.80;;;;;;;16.91;83.10;100275.31;20780624;28;20406;-86
2022/11/15 13:06:43;;;;;;;3.13;1.35;;;;;;;16.90;82.96;100262.88;20754503;28;20445;-87
2022/11/15 13:16:44;;;;;;;2.13;1.50;;;;;;;16.90;82.72;100262.88;20787262;28;20056;-86
2022/11/15 13:26:46;;;;;;;4.10;1.52;;;;;;;16.89;82.67;100245.06;20762243;28;20056;-87
2022/11/15 13:36:47;;;;;;;2.28;1.42;;;;;;;16.88;82.43;100221.84;20765202;28;20128;-86
2022/11/15 13:47:09;;;;;;;2.38;1.35;;;;;;;16.88;82.17;100216.47;20794156;28;20410;-86
2022/11/15 13:57:18;;;;;;;2.55;1.23;;;;;;;16.85;81.75;100203.31;20781559;28;20073;-87
2022/11/15 14:07:22;;;;;;;1.52;1.00;;;;;;;16.87;81.40;100187.91;20806610;28;20048;-87
2022/11/15 14:17:29;;;;;;;1.13;0.90;;;;;;;16.87;81.16;100185.22;20786595;28;20053;-87
2022/11/15 14:27:31;;;;;;;1.92;1.08;;;;;;;16.86;81.05;100164.69;20797345;28;20053;-86
2022/11/15 14:37:37;;;;;;;2.60;1.33;;;;;;;16.62;81.15;100109.59;20787700;28;20057;-86
2022/11/15 14:47:38;;;;;;;1.70;1.10;;;;;;;16.85;80.96;100152.25;20795978;28;20051;-86
2022/11/15 14:57:40;;;;;;;1.65;1.27;;;;;;;16.85;80.80;100151.38;20801818;28;20058;-86
2022/11/15 15:07:42;;;;;;;1.98;1.48;;;;;;;16.37;80.69;100063.59;20776431;28;20064;-86
2022/11/15 15:17:44;;;;;;;2.05;1.20;;;;;;;16.83;80.88;100119.28;20790980;28;20083;-87
2022/11/15 15:27:46;;;;;;;1.65;1.20;;;;;;;16.83;80.73;100116.59;20792578;28;20099;-86
2022/11/15 15:37:48;;;;;;;1.38;1.10;;;;;;;16.84;80.76;100102.16;20788524;28;20410;-86
2022/11/15 15:47:51;;;;;;;1.25;1.10;;;;;;;16.67;80.73;100068.84;20788849;28;20315;-86
2022/11/15 15:57:53;;;;;;;1.40;1.10;;;;;;;16.55;80.30;100046.69;20781984;28;20119;-96
2022/11/15 16:07:57;;;;;;;1.65;1.20;;;;;;;16.83;81.10;100062.84;20760769;28;20526;-88
2022/11/15 16:18:00;;;;;;;1.40;1.10;;;;;;;16.83;80.51;100049.41;20755868;28;20081;-91
2022/11/15 16:28:02;;;;;;;1.38;0.90;;;;;;;16.82;80.53;100028.88;20763451;28;20078;-91
2022/11/15 16:38:03;;;;;;;2.10;0.98;;;;;;;16.82;80.11;100028.88;20757603;28;20072;-90
2022/11/15 16:48:05;;;;;;;1.75;1.20;;;;;;;16.81;79.78;100011.06;20779115;28;20539;-87
2022/11/15 16:58:08;;;;;;;2.40;1.10;;;;;;;16.80;79.71;100007.53;20757048;28;20131;-88
2022/11/15 17:08:09;;;;;;;3.95;1.60;;;;;;;16.80;79.52;99998.63;20752182;28;20057;-85
2022/11/15 17:18:12;;;;;;;5.35;1.60;;;;;;;16.80;79.30;99987.88;20730973;28;20048;-86
2022/11/15 17:28:13;;;;;;;4.05;1.55;;;;;;;16.79;79.27;99997.78;20755622;28;20080;-85
2022/11/15 17:38:15;;;;;;;5.20;1.88;;;;;;;16.80;78.96;99982.50;20771056;28;20079;-84
2022/11/15 17:48:16;;;;;;;3.20;1.60;;;;;;;16.66;79.20;99952.44;20761129;28;20065;-85
2022/11/15 17:58:18;;;;;;;4.90;1.90;;;;;;;16.49;79.39;99918.34;20762147;28;20046;-89
2022/11/15 18:08:20;;;;;;;5.55;1.77;;;;;;;16.78;79.14;99969.19;20758587;28;20050;-90
2022/11/15 18:18:22;;;;;;;3.80;1.70;;;;;;;16.78;79.36;99955.75;20743784;28;20526;-87
2022/11/15 18:28:31;;;;;;;4.97;1.90;;;;;;;16.55;79.64;99908.81;20760118;28;20067;-87
2022/11/15 18:38:33;;;;;;;3.80;1.70;;;;;;;16.79;79.69;99941.31;20764195;28;20057;-86
2022/11/15 18:48:36;;;;;;;5.38;2.28;;;;;;;16.77;79.40;99919.13;20783496;28;20049;-87
2022/11/15 18:58:40;;;;;;;4.30;1.80;;;;;;;16.78;79.50;99893.06;20773745;28;20463;-87
2022/11/15 19:08:43;;;;;;;6.03;2.13;;;;;;;16.77;79.69;99894.94;20777221;28;20056;-87
2022/11/15 19:18:44;;;;;;;4.50;1.55;;;;;;;16.76;79.25;99895.94;20781874;28;20140;-87
2022/11/15 19:28:50;;;;;;;4.70;1.70;;;;;;;16.76;79.22;99895.06;20777313;28;20050;-86
2022/11/15 19:38:52;;;;;;;4.72;1.80;;;;;;;16.19;79.14;99794.97;20769216;28;20051;-87
2022/11/15 19:48:53;;;;;;;2.22;1.33;;;;;;;16.77;78.88;99881.50;20776633;28;20053;-89
2022/11/15 19:58:55;;;;;;;3.10;1.50;;;;;;;16.77;79.75;99867.19;20747249;28;20049;-90
2022/11/15 20:08:57;;;;;;;2.80;1.67;;;;;;;16.77;78.97;99864.50;20772286;28;20077;-90
2022/11/15 20:18:59;;;;;;;3.33;1.80;;;;;;;16.76;79.12;99860.13;20766931;28;20079;-89
2022/11/15 20:29:01;;;;;;;3.33;1.60;;;;;;;16.76;78.98;99854.75;20791393;28;20056;-89
2022/11/15 20:39:03;;;;;;;2.88;1.42;;;;;;;16.57;79.00;99831.56;20743732;28;20410;-88
2022/11/15 20:49:05;;;;;;;3.70;1.60;;;;;;;16.75;79.55;99858.44;20792056;28;20046;-89
2022/11/15 20:59:07;;;;;;;3.08;1.60;;;;;;;16.75;78.97;99863.81;20771063;28;20055;-88
2022/11/15 21:19:30;;;;;;;2.50;1.50;;;;;;;16.75;79.43;99843.19;20781335;28;20069;-89
2022/11/15 21:29:37;;;;;;;2.25;1.50;;;;;;;16.75;79.53;99828.88;20782350;28;20061;-89
2022/11/15 21:39:39;;;;;;;2.08;1.42;;;;;;;16.76;79.86;99825.19;20766932;28;20162;-89
2022/11/15 21:49:40;;;;;;;3.55;1.42;;;;;;;16.75;80.10;99807.38;20783813;28;20060;-90
2022/11/15 22:10:05;;;;;;;3.08;1.60;;;;;;;16.51;80.29;99752.44;20791544;28;20132;-89
2022/11/15 22:20:07;;;;;;;2.40;1.52;;;;;;;16.76;80.31;99792.94;20778451;28;20121;-89
2022/11/15 22:30:28;;;;;;;2.42;1.55;;;;;;;16.75;80.46;99775.13;20763094;28;20049;-88
2022/11/15 22:40:30;;;;;;;2.45;1.25;;;;;;;16.61;80.62;99745.13;20796915;28;20077;-89
2022/11/15 22:50:31;;;;;;;2.08;1.58;;;;;;;16.76;80.52;99763.38;20746645;28;20045;-90
2022/11/15 23:00:33;;;;;;;1.75;1.48;;;;;;;16.62;80.74;99738.75;20709936;28;20859;-89
2022/11/15 23:20:56;;;;;;;1.75;1.25;;;;;;;16.74;80.93;99739.38;20699452;28;20053;-89
2022/11/15 23:41:23;;;;;;;1.70;1.43;;;;;;;16.73;81.20;99718.88;20699319;28;20065;-89
2022/11/15 23:51:25;;;;;;;1.73;1.55;;;;;;;16.63;81.39;99700.16;20728268;28;20046;-89
